Time,TemperatureF,DewpointF,PressureIn,WindDirection,WindDirectionDegrees,WindSpeedMPH,WindSpeedGustMPH,Humidity,HourlyPrecipIn,Conditions,Clouds,dailyrainin,SolarRadiationWatts/m^2,SoftwareType,DateUTC
2013-11-01 00:00:00,63.3,61.0,29.82,South,188,12.0,18.0,92,0.01,,,0.03,0.0,meteohub,2013-11-01 04:00:00,
2013-11-01 00:01:00,63.3,61.0,29.82,South,183,5.0,18.0,92,0.01,,,0.03,0.0,meteohub,2013-11-01 04:01:00,
2013-11-01 00:02:00,63.3,61.0,29.82,SW,227,13.0,18.0,92,0.01,,,0.03,0.0,meteohub,2013-11-01 04:02:00,
2013-11-01 00:07:00,63.3,61.0,29.82,South,186,7.0,20.0,92,0.01,,,0.03,0.0,meteohub,2013-11-01 04:07:00,
2013-11-01 00:12:00,63.3,61.0,29.82,SW,217,6.0,21.0,92,0.01,,,0.03,0.0,meteohub,2013-11-01 04:12:00,
2013-11-01 00:18:00,63.3,61.3,29.82,WSW,248,5.0,21.0,93,0.01,,,0.03,0.0,meteohub,2013-11-01 04:18:00,
2013-11-01 00:23:00,63.3,61.3,29.82,SSW,210,4.0,21.0,93,0.00,,,0.03,0.0,meteohub,2013-11-01 04:23:00,
2013-11-01 00:28:00,63.3,61.3,29.81,SSW,213,8.0,19.0,93,0.01,,,0.04,0.0,meteohub,2013-11-01 04:28:00,
2013-11-01 00:33:00,63.1,61.2,29.81,South,181,11.0,17.0,93,0.01,,,0.04,0.0,meteohub,2013-11-01 04:33:00,
2013-11-01 00:38:00,63.0,60.6,29.80,South,184,6.0,17.0,92,0.01,,,0.04,0.0,meteohub,2013-11-01 04:38:00,
2013-11-01 00:43:00,62.8,60.4,29.80,SSE,159,8.0,17.0,92,0.01,,,0.04,0.0,meteohub,2013-11-01 04:43:00,
2013-11-01 00:48:00,62.8,60.8,29.80,SSW,198,3.0,14.0,93,0.01,,,0.04,0.0,meteohub,2013-11-01 04:48:00,
2013-11-01 00:54:00,62.8,60.8,29.80,South,184,7.0,15.0,93,0.01,,,0.04,0.0,meteohub,2013-11-01 04:54:00,
2013-11-01 00:59:00,62.8,60.8,29.79,South,182,6.0,15.0,93,0.01,,,0.04,0.0,meteohub,2013-11-01 04:59:00,
2013-11-01 01:04:00,62.8,60.8,29.78,South,171,12.0,15.0,93,0.01,,,0.04,0.0,meteohub,2013-11-01 05:04:00,
2013-11-01 01:09:00,62.8,60.8,29.78,South,180,2.0,15.0,93,0.01,,,0.04,0.0,meteohub,2013-11-01 05:09:00,
2013-11-01 01:14:00,62.8,60.8,29.78,South,176,5.0,15.0,93,0.01,,,0.04,0.0,meteohub,2013-11-01 05:14:00,
2013-11-01 01:19:00,62.8,61.0,29.78,SE,145,7.0,13.0,94,0.01,,,0.04,0.0,meteohub,2013-11-01 05:19:00,
2013-11-01 01:25:00,62.6,60.8,29.77,SSE,166,2.0,11.0,94,0.00,,,0.04,0.0,meteohub,2013-11-01 05:25:00,
2013-11-01 01:30:00,62.4,60.6,29.77,SSE,164,7.0,10.0,94,0.00,,,0.04,0.0,meteohub,2013-11-01 05:30:00,
2013-11-01 01:35:00,62.4,60.6,29.76,South,190,5.0,13.0,94,0.00,,,0.04,0.0,meteohub,2013-11-01 05:35:00,
2013-11-01 01:40:00,62.4,60.6,29.76,South,188,6.0,13.0,94,0.00,,,0.04,0.0,meteohub,2013-11-01 05:40:00,
2013-11-01 01:45:00,62.4,60.6,29.75,South,177,4.0,14.0,94,0.00,,,0.04,0.0,meteohub,2013-11-01 05:45:00,
2013-11-01 01:48:00,62.2,60.4,29.76,SW,214,5.0,14.0,94,0.00,,,0.04,0.0,meteohub,2013-11-01 05:48:00,
2013-11-01 01:53:00,62.2,60.4,29.76,SSE,165,5.0,14.0,94,0.00,,,0.04,0.0,meteohub,2013-11-01 05:53:00,
2013-11-01 01:58:00,62.4,60.6,29.75,SSE,168,7.0,14.0,94,0.00,,,0.04,0.0,meteohub,2013-11-01 05:58:00,
2013-11-01 02:03:00,62.4,60.6,29.74,South,180,3.0,14.0,94,0.00,,,0.04,0.0,meteohub,2013-11-01 06:03:00,
2013-11-01 02:08:00,62.6,60.8,29.76,SSW,194,12.0,14.0,94,0.00,,,0.04,0.0,meteohub,2013-11-01 06:08:00,
2013-11-01 02:13:00,62.8,61.3,29.76,SSW,201,7.0,13.0,95,0.00,,,0.04,0.0,meteohub,2013-11-01 06:13:00,
2013-11-01 02:19:00,62.8,61.3,29.75,South,186,10.0,14.0,95,0.00,,,0.04,0.0,meteohub,2013-11-01 06:19:00,
2013-11-01 02:24:00,62.8,61.3,29.75,SE,137,5.0,19.0,95,0.00,,,0.04,0.0,meteohub,2013-11-01 06:24:00,
2013-11-01 02:29:00,62.8,61.3,29.75,South,189,9.0,19.0,95,0.00,,,0.04,0.0,meteohub,2013-11-01 06:29:00,
2013-11-01 02:34:00,62.8,61.0,29.74,SSE,168,5.0,15.0,94,0.00,,,0.04,0.0,meteohub,2013-11-01 06:34:00,
2013-11-01 02:39:00,62.8,61.0,29.74,SSW,205,5.0,14.0,94,0.00,,,0.04,0.0,meteohub,2013-11-01 06:39:00,
2013-11-01 02:44:00,62.6,60.8,29.74,South,185,3.0,11.0,94,0.00,,,0.04,0.0,meteohub,2013-11-01 06:44:00,
2013-11-01 02:49:00,62.4,60.6,29.74,SSW,194,16.0,16.0,94,0.00,,,0.04,0.0,meteohub,2013-11-01 06:49:00,
2013-11-01 02:55:00,62.4,60.6,29.73,South,184,0.0,18.0,94,0.00,,,0.04,0.0,meteohub,2013-11-01 06:55:00,
2013-11-01 03:00:00,62.4,61.0,29.73,SSE,167,5.0,18.0,95,0.00,,,0.04,0.0,meteohub,2013-11-01 07:00:00,
2013-11-01 03:05:00,62.4,60.6,29.72,SSW,204,4.0,13.0,94,0.00,,,0.04,0.0,meteohub,2013-11-01 07:05:00,
2013-11-01 03:10:00,62.6,61.2,29.72,SSW,212,5.0,13.0,95,0.00,,,0.04,0.0,meteohub,2013-11-01 07:10:00,
2013-11-01 03:15:00,62.6,60.8,29.72,SW,218,7.0,7.0,94,0.00,,,0.04,0.0,meteohub,2013-11-01 07:15:00,
2013-11-01 03:20:00,62.8,61.0,29.72,SSW,201,3.0,10.0,94,0.00,,,0.04,0.0,meteohub,2013-11-01 07:20:00,
2013-11-01 03:25:00,63.0,61.2,29.71,SSW,212,8.0,13.0,94,0.00,,,0.04,0.0,meteohub,2013-11-01 07:25:00,
2013-11-01 03:31:00,63.0,61.2,29.71,SSW,205,4.0,14.0,94,0.00,,,0.04,0.0,meteohub,2013-11-01 07:31:00,
2013-11-01 03:36:00,63.1,61.3,29.71,SW,223,5.0,14.0,94,0.00,,,0.04,0.0,meteohub,2013-11-01 07:36:00,
2013-11-01 03:41:00,63.1,61.3,29.70,SSW,192,2.0,14.0,94,0.00,,,0.04,0.0,meteohub,2013-11-01 07:41:00,
2013-11-01 03:46:00,63.3,61.5,29.70,SW,214,4.0,16.0,94,0.00,,,0.04,0.0,meteohub,2013-11-01 07:46:00,
2013-11-01 03:51:00,63.3,61.3,29.70,SW,231,10.0,16.0,93,0.00,,,0.04,0.0,meteohub,2013-11-01 07:51:00,
2013-11-01 03:56:00,63.5,61.5,29.70,South,178,5.0,16.0,93,0.00,,,0.04,0.0,meteohub,2013-11-01 07:56:00,
2013-11-01 04:01:00,63.7,61.7,29.69,South,174,4.0,16.0,93,0.00,,,0.04,0.0,meteohub,2013-11-01 08:01:00,
2013-11-01 04:06:00,63.7,61.3,29.69,SSW,200,7.0,16.0,92,0.00,,,0.04,0.0,meteohub,2013-11-01 08:06:00,
2013-11-01 04:11:00,63.7,61.3,29.69,South,185,3.0,16.0,92,0.00,,,0.04,0.0,meteohub,2013-11-01 08:11:00,
2013-11-01 04:17:00,63.5,61.2,29.69,South,180,5.0,12.0,92,0.00,,,0.04,0.0,meteohub,2013-11-01 08:17:00,
2013-11-01 04:22:00,63.3,61.0,29.69,SSW,209,7.0,12.0,92,0.00,,,0.04,0.0,meteohub,2013-11-01 08:22:00,
2013-11-01 04:27:00,63.3,61.0,29.69,SSW,195,6.0,14.0,92,0.00,,,0.04,0.0,meteohub,2013-11-01 08:27:00,
2013-11-01 04:32:00,63.5,61.2,29.68,South,188,9.0,15.0,92,0.00,,,0.04,0.0,meteohub,2013-11-01 08:32:00,
2013-11-01 04:37:00,63.5,61.2,29.68,SSW,204,4.0,15.0,92,0.00,,,0.04,0.0,meteohub,2013-11-01 08:37:00,
2013-11-01 04:42:00,63.5,60.8,29.68,SSE,161,8.0,15.0,91,0.00,,,0.04,0.0,meteohub,2013-11-01 08:42:00,
2013-11-01 04:47:00,63.7,61.0,29.68,SW,215,10.0,14.0,91,0.00,,,0.04,0.0,meteohub,2013-11-01 08:47:00,
2013-11-01 04:52:00,63.7,61.0,29.68,SSW,209,2.0,14.0,91,0.00,,,0.04,0.0,meteohub,2013-11-01 08:52:00,
2013-11-01 04:57:00,63.9,60.8,29.67,SSW,192,10.0,16.0,90,0.00,,,0.04,0.0,meteohub,2013-11-01 08:57:00,
2013-11-01 05:02:00,64.0,61.0,29.66,SW,235,10.0,16.0,90,0.00,,,0.04,0.0,meteohub,2013-11-01 09:02:00,
2013-11-01 05:07:00,64.0,60.8,29.66,SW,221,9.0,14.0,89,0.00,,,0.04,0.0,meteohub,2013-11-01 09:07:00,
2013-11-01 05:12:00,64.2,61.0,29.66,SSW,192,8.0,20.0,89,0.00,,,0.04,0.0,meteohub,2013-11-01 09:12:00,
2013-11-01 05:17:00,64.4,60.8,29.66,South,183,11.0,20.0,88,0.00,,,0.04,0.0,meteohub,2013-11-01 09:17:00,
2013-11-01 05:22:00,64.6,61.3,29.65,South,187,2.0,20.0,89,0.00,,,0.04,0.0,meteohub,2013-11-01 09:22:00,
2013-11-01 05:27:00,64.6,61.3,29.66,SW,221,8.0,21.0,89,0.00,,,0.04,0.0,meteohub,2013-11-01 09:27:00,
2013-11-01 05:32:00,64.6,61.3,29.65,South,186,8.0,21.0,89,0.00,,,0.04,0.0,meteohub,2013-11-01 09:32:00,
2013-11-01 05:37:00,64.8,61.5,29.65,South,187,8.0,22.0,89,0.00,,,0.04,0.0,meteohub,2013-11-01 09:37:00,
2013-11-01 05:42:00,64.9,61.3,29.65,SW,221,9.0,22.0,88,0.00,,,0.04,0.0,meteohub,2013-11-01 09:42:00,
2013-11-01 05:47:00,64.9,61.3,29.65,SSW,205,9.0,23.0,88,0.00,,,0.04,0.0,meteohub,2013-11-01 09:47:00,
2013-11-01 05:52:00,65.1,61.9,29.65,WSW,248,10.0,23.0,89,0.00,,,0.04,0.0,meteohub,2013-11-01 09:52:00,
2013-11-01 05:57:00,65.1,61.9,29.65,SSW,201,8.0,23.0,89,0.00,,,0.04,0.0,meteohub,2013-11-01 09:57:00,
2013-11-01 06:02:00,65.3,62.1,29.65,SW,214,13.0,22.0,89,0.00,,,0.04,0.0,meteohub,2013-11-01 10:02:00,
2013-11-01 06:07:00,65.5,62.2,29.64,WSW,248,14.0,22.0,89,0.00,,,0.04,0.0,meteohub,2013-11-01 10:07:00,
2013-11-01 06:12:00,65.7,62.2,29.64,South,177,11.0,21.0,89,0.00,,,0.04,0.0,meteohub,2013-11-01 10:12:00,
2013-11-01 06:17:00,65.8,62.4,29.63,SSE,161,9.0,21.0,89,0.00,,,0.04,0.0,meteohub,2013-11-01 10:17:00,
2013-11-01 06:22:00,65.8,62.2,29.64,SSW,204,11.0,22.0,88,0.00,,,0.04,0.0,meteohub,2013-11-01 10:22:00,
2013-11-01 06:27:00,65.8,62.2,29.64,South,186,10.0,22.0,88,0.00,,,0.04,0.0,meteohub,2013-11-01 10:27:00,
2013-11-01 06:32:00,65.8,62.4,29.63,SE,139,12.0,22.0,89,0.00,,,0.04,0.0,meteohub,2013-11-01 10:32:00,
2013-11-01 06:37:00,65.8,62.4,29.63,South,190,17.0,21.0,89,0.00,,,0.04,0.0,meteohub,2013-11-01 10:37:00,
2013-11-01 06:42:00,66.0,62.6,29.62,SSW,198,8.0,21.0,89,0.00,,,0.04,0.0,meteohub,2013-11-01 10:42:00,
2013-11-01 06:47:00,66.0,62.6,29.62,SSW,197,10.0,21.0,89,0.00,,,0.04,0.0,meteohub,2013-11-01 10:47:00,
2013-11-01 06:52:00,66.0,62.4,29.61,South,175,6.0,23.0,88,0.00,,,0.04,0.0,meteohub,2013-11-01 10:52:00,
2013-11-01 06:57:00,66.2,62.6,29.62,South,185,11.0,23.0,88,0.00,,,0.04,0.0,meteohub,2013-11-01 10:57:00,
2013-11-01 07:02:00,66.2,62.6,29.62,South,169,9.0,23.0,88,0.00,,,0.04,0.0,meteohub,2013-11-01 11:02:00,
2013-11-01 07:07:00,66.2,62.6,29.61,SSW,213,8.0,22.0,88,0.00,,,0.04,0.0,meteohub,2013-11-01 11:07:00,
2013-11-01 07:12:00,66.2,62.6,29.62,SSW,194,7.0,28.0,88,0.00,,,0.04,0.0,meteohub,2013-11-01 11:12:00,
2013-11-01 07:17:00,66.2,62.2,29.62,SSW,199,8.0,28.0,87,0.00,,,0.04,0.0,meteohub,2013-11-01 11:17:00,
2013-11-01 07:22:00,66.4,62.4,29.62,SSE,160,10.0,28.0,87,0.00,,,0.04,0.0,meteohub,2013-11-01 11:22:00,
2013-11-01 07:27:00,66.4,62.4,29.62,SSW,197,7.0,21.0,87,0.00,,,0.04,0.0,meteohub,2013-11-01 11:27:00,
2013-11-01 07:32:00,66.4,62.4,29.62,WSW,245,8.0,21.0,87,0.00,,,0.04,0.0,meteohub,2013-11-01 11:32:00,
2013-11-01 07:37:00,66.4,62.4,29.62,SW,217,6.0,22.0,87,0.00,,,0.04,5.0,meteohub,2013-11-01 11:37:00,
2013-11-01 07:42:00,66.4,62.4,29.62,South,190,14.0,22.0,87,0.00,,,0.04,7.0,meteohub,2013-11-01 11:42:00,
2013-11-01 07:47:00,66.4,62.4,29.63,SSW,198,9.0,23.0,87,0.00,,,0.04,7.0,meteohub,2013-11-01 11:47:00,
2013-11-01 07:52:00,66.4,62.4,29.62,South,191,10.0,23.0,87,0.00,,,0.04,5.0,meteohub,2013-11-01 11:52:00,
2013-11-01 07:57:00,66.4,62.4,29.63,WSW,252,2.0,23.0,87,0.00,,,0.04,5.0,meteohub,2013-11-01 11:57:00,
2013-11-01 08:02:00,66.4,62.4,29.62,South,177,7.0,23.0,87,0.00,,,0.04,9.0,meteohub,2013-11-01 12:02:00,
2013-11-01 08:07:00,66.4,62.4,29.62,SSW,203,10.0,20.0,87,0.00,,,0.04,9.0,meteohub,2013-11-01 12:07:00,
2013-11-01 08:12:00,66.4,62.4,29.61,South,173,7.0,20.0,87,0.00,,,0.04,11.0,meteohub,2013-11-01 12:12:00,
2013-11-01 08:17:00,66.6,62.6,29.62,SE,145,4.0,16.0,87,0.00,,,0.04,14.0,meteohub,2013-11-01 12:17:00,
2013-11-01 08:22:00,66.6,62.6,29.62,South,175,14.0,19.0,87,0.00,,,0.04,12.0,meteohub,2013-11-01 12:22:00,
2013-11-01 08:27:00,66.6,62.6,29.62,South,178,7.0,19.0,87,0.00,,,0.04,14.0,meteohub,2013-11-01 12:27:00,
2013-11-01 08:32:00,66.6,62.6,29.62,South,187,7.0,19.0,87,0.00,,,0.04,11.0,meteohub,2013-11-01 12:32:00,
2013-11-01 08:37:00,66.4,62.4,29.62,SSW,200,5.0,19.0,87,0.00,,,0.04,21.0,meteohub,2013-11-01 12:37:00,
2013-11-01 08:42:00,66.2,62.2,29.62,South,170,10.0,19.0,87,0.00,,,0.04,14.0,meteohub,2013-11-01 12:42:00,
2013-11-01 08:47:00,66.2,62.6,29.61,SW,217,5.0,16.0,88,0.00,,,0.04,18.0,meteohub,2013-11-01 12:47:00,
2013-11-01 08:52:00,66.4,62.8,29.62,South,178,2.0,21.0,88,0.00,,,0.04,23.0,meteohub,2013-11-01 12:52:00,
2013-11-01 08:57:00,66.2,62.6,29.61,South,190,17.0,21.0,88,0.00,,,0.04,23.0,meteohub,2013-11-01 12:57:00,
2013-11-01 09:02:00,66.0,62.6,29.60,South,171,4.0,21.0,89,0.01,,,0.05,26.0,meteohub,2013-11-01 13:02:00,
2013-11-01 09:07:00,66.0,62.4,29.60,SW,223,11.0,22.0,88,0.01,,,0.05,30.0,meteohub,2013-11-01 13:07:00,
2013-11-01 09:12:00,66.2,62.6,29.60,SE,136,15.0,25.0,88,0.01,,,0.05,32.0,meteohub,2013-11-01 13:12:00,
2013-11-01 09:17:00,66.4,62.8,29.60,South,188,18.0,30.0,88,0.01,,,0.05,37.0,meteohub,2013-11-01 13:17:00,
2013-11-01 09:22:00,66.4,62.8,29.60,South,190,15.0,30.0,88,0.01,,,0.05,40.0,meteohub,2013-11-01 13:22:00,
2013-11-01 09:27:00,66.4,62.8,29.59,SSW,211,8.0,30.0,88,0.01,,,0.05,35.0,meteohub,2013-11-01 13:27:00,
2013-11-01 09:32:00,66.4,62.8,29.59,SSE,167,6.0,29.0,88,0.01,,,0.05,46.0,meteohub,2013-11-01 13:32:00,
2013-11-01 09:37:00,66.2,62.6,29.60,WSW,252,8.0,29.0,88,0.01,,,0.05,35.0,meteohub,2013-11-01 13:37:00,
2013-11-01 09:42:00,66.2,62.6,29.59,SSE,162,16.0,29.0,88,0.01,,,0.05,40.0,meteohub,2013-11-01 13:42:00,
2013-11-01 09:47:00,66.4,62.8,29.59,SSW,196,8.0,21.0,88,0.01,,,0.05,46.0,meteohub,2013-11-01 13:47:00,
2013-11-01 09:52:00,66.4,62.8,29.59,WSW,244,15.0,25.0,88,0.01,,,0.05,42.0,meteohub,2013-11-01 13:52:00,
2013-11-01 09:57:00,66.2,62.6,29.58,South,173,25.0,25.0,88,0.00,,,0.05,37.0,meteohub,2013-11-01 13:57:00,
2013-11-01 10:02:00,66.0,62.6,29.58,South,184,9.0,28.0,89,0.00,,,0.05,28.0,meteohub,2013-11-01 14:02:00,
2013-11-01 10:07:00,65.8,62.4,29.58,SSW,195,13.0,28.0,89,0.00,,,0.05,23.0,meteohub,2013-11-01 14:07:00,
2013-11-01 10:12:00,65.8,62.4,29.58,SSE,153,9.0,28.0,89,0.00,,,0.05,30.0,meteohub,2013-11-01 14:12:00,
2013-11-01 10:17:00,65.8,62.4,29.57,South,171,11.0,27.0,89,0.00,,,0.05,42.0,meteohub,2013-11-01 14:17:00,
2013-11-01 10:22:00,65.8,62.4,29.58,SW,215,11.0,27.0,89,0.01,,,0.06,30.0,meteohub,2013-11-01 14:22:00,
2013-11-01 10:27:00,66.0,62.4,29.57,South,181,8.0,23.0,88,0.01,,,0.06,25.0,meteohub,2013-11-01 14:27:00,
2013-11-01 10:32:00,66.0,62.4,29.56,SSW,195,18.0,23.0,88,0.01,,,0.06,39.0,meteohub,2013-11-01 14:32:00,
2013-11-01 10:37:00,66.0,62.4,29.57,SE,128,17.0,32.0,88,0.01,,,0.06,32.0,meteohub,2013-11-01 14:37:00,
2013-11-01 10:42:00,66.0,62.4,29.56,SSW,213,11.0,32.0,88,0.01,,,0.06,21.0,meteohub,2013-11-01 14:42:00,
2013-11-01 10:47:00,66.0,62.4,29.57,SSE,168,10.0,32.0,88,0.01,,,0.06,42.0,meteohub,2013-11-01 14:47:00,
2013-11-01 10:52:00,66.2,62.6,29.56,South,187,11.0,30.0,88,0.01,,,0.06,26.0,meteohub,2013-11-01 14:52:00,
2013-11-01 10:57:00,66.2,62.6,29.56,South,186,21.0,30.0,88,0.01,,,0.06,49.0,meteohub,2013-11-01 14:57:00,
2013-11-01 11:02:00,66.0,62.4,29.56,SW,214,8.0,30.0,88,0.01,,,0.06,26.0,meteohub,2013-11-01 15:02:00,
2013-11-01 11:07:00,65.8,62.4,29.57,SSW,198,13.0,28.0,89,0.01,,,0.06,19.0,meteohub,2013-11-01 15:07:00,
2013-11-01 11:12:00,65.7,62.2,29.60,SW,223,6.0,26.0,89,0.01,,,0.06,12.0,meteohub,2013-11-01 15:12:00,
2013-11-01 11:17:00,65.3,62.2,29.60,SSW,208,12.0,27.0,90,0.04,,,0.09,53.0,meteohub,2013-11-01 15:17:00,
2013-11-01 11:22:00,64.8,61.5,29.60,SSW,211,11.0,29.0,89,0.03,,,0.09,74.0,meteohub,2013-11-01 15:22:00,
2013-11-01 11:27:00,64.4,61.3,29.60,SW,236,12.0,29.0,90,0.03,,,0.09,67.0,meteohub,2013-11-01 15:27:00,
2013-11-01 11:32:00,64.0,61.0,29.60,SW,217,4.0,29.0,90,0.03,,,0.09,72.0,meteohub,2013-11-01 15:32:00,
2013-11-01 11:37:00,63.7,60.4,29.59,South,173,5.0,25.0,89,0.03,,,0.09,90.0,meteohub,2013-11-01 15:37:00,
2013-11-01 11:42:00,63.1,59.9,29.59,SSW,205,4.0,20.0,89,0.03,,,0.09,58.0,meteohub,2013-11-01 15:42:00,
2013-11-01 11:47:00,63.1,60.1,29.59,SW,223,8.0,16.0,90,0.03,,,0.09,49.0,meteohub,2013-11-01 15:47:00,
2013-11-01 11:52:00,63.0,59.7,29.60,SSW,213,5.0,16.0,89,0.03,,,0.09,40.0,meteohub,2013-11-01 15:52:00,
2013-11-01 11:57:00,63.0,59.7,29.60,SSW,197,6.0,18.0,89,0.03,,,0.09,44.0,meteohub,2013-11-01 15:57:00,
2013-11-01 12:02:00,63.0,59.0,29.60,SW,231,5.0,18.0,87,0.03,,,0.09,70.0,meteohub,2013-11-01 16:02:00,
2013-11-01 12:07:00,63.1,58.8,29.60,SSW,199,4.0,18.0,86,0.03,,,0.09,60.0,meteohub,2013-11-01 16:07:00,
2013-11-01 12:12:00,63.5,58.6,29.60,South,170,6.0,14.0,84,0.02,,,0.09,79.0,meteohub,2013-11-01 16:12:00,
2013-11-01 12:17:00,63.7,58.8,29.60,WNW,287,8.0,15.0,84,0.00,,,0.09,74.0,meteohub,2013-11-01 16:17:00,
2013-11-01 12:23:00,63.9,58.6,29.60,WNW,290,7.0,15.0,83,0.00,,,0.09,79.0,meteohub,2013-11-01 16:23:00,
2013-11-01 12:28:00,63.9,58.3,29.59,SW,234,11.0,13.0,82,0.00,,,0.09,84.0,meteohub,2013-11-01 16:28:00,
2013-11-01 12:33:00,64.0,58.1,29.59,WSW,239,6.0,16.0,81,0.00,,,0.09,116.0,meteohub,2013-11-01 16:33:00,
2013-11-01 12:38:00,64.4,58.5,29.58,WSW,241,11.0,19.0,81,0.00,,,0.09,98.0,meteohub,2013-11-01 16:38:00,
2013-11-01 12:43:00,64.8,58.5,29.58,South,180,3.0,19.0,80,0.00,,,0.09,116.0,meteohub,2013-11-01 16:43:00,
2013-11-01 12:48:00,64.8,58.1,29.57,South,187,7.0,16.0,79,0.00,,,0.09,84.0,meteohub,2013-11-01 16:48:00,
2013-11-01 12:53:00,64.9,57.9,29.56,West,261,7.0,16.0,78,0.00,,,0.09,69.0,meteohub,2013-11-01 16:53:00,
2013-11-01 12:58:00,65.1,57.7,29.57,SSW,200,8.0,13.0,77,0.00,,,0.09,93.0,meteohub,2013-11-01 16:58:00,
2013-11-01 13:03:00,65.1,57.7,29.56,SSE,165,7.0,13.0,77,0.00,,,0.09,84.0,meteohub,2013-11-01 17:03:00,
2013-11-01 13:09:00,65.1,57.7,29.55,SSW,197,7.0,14.0,77,0.00,,,0.09,63.0,meteohub,2013-11-01 17:09:00,
2013-11-01 13:14:00,64.9,57.9,29.56,South,181,5.0,15.0,78,0.00,,,0.09,65.0,meteohub,2013-11-01 17:14:00,
2013-11-01 13:19:00,64.8,58.1,29.55,South,180,10.0,16.0,79,0.00,,,0.09,70.0,meteohub,2013-11-01 17:19:00,
2013-11-01 13:24:00,64.6,57.9,29.55,SW,230,12.0,18.0,79,0.00,,,0.09,76.0,meteohub,2013-11-01 17:24:00,
2013-11-01 13:29:00,64.8,58.1,29.56,South,187,6.0,18.0,79,0.00,,,0.09,74.0,meteohub,2013-11-01 17:29:00,
2013-11-01 13:34:00,64.8,58.1,29.55,SSE,163,7.0,18.0,79,0.00,,,0.09,83.0,meteohub,2013-11-01 17:34:00,
2013-11-01 13:39:00,64.8,58.1,29.55,SSW,198,5.0,18.0,79,0.00,,,0.09,76.0,meteohub,2013-11-01 17:39:00,
2013-11-01 13:44:00,64.8,58.5,29.55,SSW,196,8.0,19.0,80,0.00,,,0.09,84.0,meteohub,2013-11-01 17:44:00,
2013-11-01 13:49:00,64.4,58.5,29.54,South,182,6.0,19.0,81,0.00,,,0.09,100.0,meteohub,2013-11-01 17:49:00,
2013-11-01 13:55:00,64.2,58.6,29.54,SSE,162,7.0,19.0,82,0.00,,,0.09,104.0,meteohub,2013-11-01 17:55:00,
2013-11-01 14:00:00,64.2,58.3,29.55,South,181,10.0,18.0,81,0.00,,,0.09,109.0,meteohub,2013-11-01 18:00:00,
2013-11-01 14:05:00,64.4,58.5,29.55,South,187,8.0,20.0,81,0.00,,,0.09,135.0,meteohub,2013-11-01 18:05:00,
2013-11-01 14:10:00,64.6,58.3,29.55,WSW,239,12.0,21.0,80,0.00,,,0.09,137.0,meteohub,2013-11-01 18:10:00,
2013-11-01 14:15:00,64.6,58.3,29.54,SSW,202,11.0,21.0,80,0.00,,,0.09,190.0,meteohub,2013-11-01 18:15:00,
2013-11-01 14:20:00,64.6,58.3,29.55,SSW,211,5.0,21.0,80,0.00,,,0.09,214.0,meteohub,2013-11-01 18:20:00,
2013-11-01 14:25:00,64.8,58.1,29.55,SSW,199,6.0,18.0,79,0.00,,,0.09,202.0,meteohub,2013-11-01 18:25:00,
2013-11-01 14:30:00,64.8,58.1,29.55,South,189,14.0,25.0,79,0.00,,,0.09,134.0,meteohub,2013-11-01 18:30:00,
2013-11-01 14:36:00,64.8,58.1,29.55,SSE,164,13.0,25.0,79,0.00,,,0.09,116.0,meteohub,2013-11-01 18:36:00,
2013-11-01 14:41:00,64.8,58.1,29.55,South,171,12.0,23.0,79,0.00,,,0.09,229.0,meteohub,2013-11-01 18:41:00,
2013-11-01 14:46:00,64.8,58.1,29.54,South,184,10.0,19.0,79,0.00,,,0.09,151.0,meteohub,2013-11-01 18:46:00,
2013-11-01 14:51:00,64.6,57.9,29.54,South,171,6.0,17.0,79,0.00,,,0.09,171.0,meteohub,2013-11-01 18:51:00,
2013-11-01 14:56:00,64.8,58.5,29.54,SW,233,6.0,17.0,80,0.00,,,0.09,202.0,meteohub,2013-11-01 18:56:00,
2013-11-01 15:01:00,64.6,58.3,29.54,SSW,210,4.0,19.0,80,0.00,,,0.09,200.0,meteohub,2013-11-01 19:01:00,
2013-11-01 15:06:00,64.8,58.5,29.54,SSW,211,6.0,19.0,80,0.00,,,0.09,165.0,meteohub,2013-11-01 19:06:00,
2013-11-01 15:11:00,64.8,58.5,29.54,SW,218,9.0,19.0,80,0.00,,,0.09,197.0,meteohub,2013-11-01 19:11:00,
2013-11-01 15:16:00,64.9,58.3,29.53,South,175,10.0,18.0,79,0.00,,,0.09,181.0,meteohub,2013-11-01 19:16:00,
2013-11-01 15:22:00,64.8,58.1,29.54,SSW,205,9.0,18.0,79,0.00,,,0.09,165.0,meteohub,2013-11-01 19:22:00,
2013-11-01 15:27:00,64.8,58.5,29.54,SSE,164,6.0,20.0,80,0.00,,,0.09,200.0,meteohub,2013-11-01 19:27:00,
2013-11-01 15:32:00,64.9,58.3,29.54,South,184,5.0,20.0,79,0.00,,,0.09,179.0,meteohub,2013-11-01 19:32:00,
2013-11-01 15:37:00,65.5,58.8,29.54,ESE,119,5.0,20.0,79,0.00,,,0.09,381.0,meteohub,2013-11-01 19:37:00,
2013-11-01 15:42:00,66.0,59.0,29.54,SSW,209,7.0,21.0,78,0.00,,,0.09,327.0,meteohub,2013-11-01 19:42:00,
2013-11-01 15:47:00,66.0,58.6,29.54,SW,220,9.0,21.0,77,0.00,,,0.09,132.0,meteohub,2013-11-01 19:47:00,
2013-11-01 15:52:00,65.7,58.3,29.54,SSE,150,7.0,20.0,77,0.00,,,0.09,102.0,meteohub,2013-11-01 19:52:00,
2013-11-01 15:57:00,65.5,58.5,29.54,SSW,204,7.0,20.0,78,0.00,,,0.09,125.0,meteohub,2013-11-01 19:57:00,
2013-11-01 16:02:00,65.1,58.5,29.53,SSW,203,6.0,17.0,79,0.00,,,0.09,348.0,meteohub,2013-11-01 20:02:00,
2013-11-01 16:07:00,65.5,58.8,29.55,South,191,3.0,15.0,79,0.00,,,0.09,221.0,meteohub,2013-11-01 20:07:00,
2013-11-01 16:12:00,65.7,58.6,29.55,South,178,2.0,15.0,78,0.00,,,0.09,144.0,meteohub,2013-11-01 20:12:00,
2013-11-01 16:17:00,65.3,58.3,29.55,SSE,157,8.0,16.0,78,0.00,,,0.09,46.0,meteohub,2013-11-01 20:17:00,
2013-11-01 16:22:00,64.8,58.1,29.54,SSW,194,4.0,16.0,79,0.00,,,0.09,90.0,meteohub,2013-11-01 20:22:00,
2013-11-01 16:27:00,64.4,58.1,29.54,South,178,2.0,16.0,80,0.00,,,0.09,102.0,meteohub,2013-11-01 20:27:00,
2013-11-01 16:32:00,64.2,58.3,29.55,South,182,6.0,15.0,81,0.00,,,0.09,76.0,meteohub,2013-11-01 20:32:00,
2013-11-01 16:37:00,64.0,58.1,29.55,WSW,238,5.0,15.0,81,0.00,,,0.09,51.0,meteohub,2013-11-01 20:37:00,
2013-11-01 16:42:00,63.9,58.3,29.55,South,183,6.0,13.0,82,0.00,,,0.09,51.0,meteohub,2013-11-01 20:42:00,
2013-11-01 16:47:00,63.7,58.1,29.55,South,191,11.0,15.0,82,0.00,,,0.09,47.0,meteohub,2013-11-01 20:47:00,
2013-11-01 16:52:00,63.5,58.3,29.55,South,182,2.0,15.0,83,0.00,,,0.09,37.0,meteohub,2013-11-01 20:52:00,
2013-11-01 16:57:00,63.3,58.1,29.55,SSE,158,10.0,15.0,83,0.00,,,0.09,30.0,meteohub,2013-11-01 20:57:00,
2013-11-01 17:02:00,63.1,57.9,29.55,SSW,203,7.0,12.0,83,0.00,,,0.09,28.0,meteohub,2013-11-01 21:02:00,
2013-11-01 17:07:00,63.1,57.9,29.55,SW,219,4.0,12.0,83,0.00,,,0.09,30.0,meteohub,2013-11-01 21:07:00,
2013-11-01 17:12:00,63.1,57.9,29.55,South,178,1.0,12.0,83,0.00,,,0.09,28.0,meteohub,2013-11-01 21:12:00,
2013-11-01 17:17:00,63.1,58.3,29.55,South,183,3.0,11.0,84,0.00,,,0.09,35.0,meteohub,2013-11-01 21:17:00,
2013-11-01 17:22:00,63.1,58.3,29.55,SW,222,5.0,10.0,84,0.00,,,0.09,28.0,meteohub,2013-11-01 21:22:00,
2013-11-01 17:27:00,63.0,58.1,29.55,South,184,6.0,11.0,84,0.00,,,0.09,23.0,meteohub,2013-11-01 21:27:00,
2013-11-01 17:32:00,63.0,58.1,29.56,South,188,6.0,11.0,84,0.00,,,0.09,25.0,meteohub,2013-11-01 21:32:00,
2013-11-01 17:37:00,62.8,58.3,29.56,SSE,150,6.0,11.0,85,0.00,,,0.09,40.0,meteohub,2013-11-01 21:37:00,
2013-11-01 17:42:00,62.8,58.3,29.56,SSW,207,10.0,13.0,85,0.00,,,0.09,16.0,meteohub,2013-11-01 21:42:00,
2013-11-01 17:47:00,62.8,58.3,29.57,SSW,206,14.0,18.0,85,0.00,,,0.09,7.0,meteohub,2013-11-01 21:47:00,
2013-11-01 17:52:00,62.6,58.1,29.57,South,190,3.0,18.0,85,0.00,,,0.09,5.0,meteohub,2013-11-01 21:52:00,
2013-11-01 17:57:00,62.4,57.9,29.56,SSW,198,5.0,18.0,85,0.00,,,0.09,0.0,meteohub,2013-11-01 21:57:00,
2013-11-01 18:02:00,62.2,57.7,29.57,SSE,153,4.0,16.0,85,0.00,,,0.09,0.0,meteohub,2013-11-01 22:02:00,
2013-11-01 18:07:00,62.2,57.7,29.57,SSE,163,10.0,16.0,85,0.00,,,0.09,0.0,meteohub,2013-11-01 22:07:00,
2013-11-01 18:12:00,62.1,57.7,29.58,South,171,6.0,16.0,86,0.00,,,0.09,0.0,meteohub,2013-11-01 22:12:00,
2013-11-01 18:17:00,62.1,57.7,29.58,SSW,192,4.0,14.0,86,0.00,,,0.09,0.0,meteohub,2013-11-01 22:17:00,
2013-11-01 18:22:00,62.1,58.1,29.58,SSW,213,11.0,14.0,87,0.00,,,0.09,0.0,meteohub,2013-11-01 22:22:00,
2013-11-01 18:27:00,62.1,58.1,29.58,SW,229,5.0,13.0,87,0.00,,,0.09,0.0,meteohub,2013-11-01 22:27:00,
2013-11-01 18:32:00,62.1,57.7,29.59,SSW,199,2.0,11.0,86,0.00,,,0.09,0.0,meteohub,2013-11-01 22:32:00,
2013-11-01 18:37:00,62.2,57.9,29.60,South,184,6.0,17.0,86,0.00,,,0.09,0.0,meteohub,2013-11-01 22:37:00,
2013-11-01 18:42:00,62.4,57.9,29.59,SSE,159,10.0,21.0,85,0.00,,,0.09,0.0,meteohub,2013-11-01 22:42:00,
2013-11-01 18:47:00,62.6,58.1,29.60,South,190,5.0,21.0,85,0.00,,,0.09,0.0,meteohub,2013-11-01 22:47:00,
2013-11-01 18:52:00,62.4,57.9,29.60,South,182,7.0,21.0,85,0.00,,,0.09,0.0,meteohub,2013-11-01 22:52:00,
2013-11-01 18:57:00,62.2,57.7,29.60,SW,217,5.0,17.0,85,0.00,,,0.09,0.0,meteohub,2013-11-01 22:57:00,
2013-11-01 19:02:00,62.1,57.7,29.60,SSE,153,5.0,14.0,86,0.00,,,0.09,0.0,meteohub,2013-11-01 23:02:00,
2013-11-01 19:07:00,61.9,57.6,29.60,SSW,203,6.0,14.0,86,0.00,,,0.09,0.0,meteohub,2013-11-01 23:07:00,
2013-11-01 19:12:00,61.9,57.6,29.61,South,187,12.0,12.0,86,0.00,,,0.09,0.0,meteohub,2013-11-01 23:12:00,
2013-11-01 19:17:00,61.9,57.6,29.61,SSW,204,10.0,15.0,86,0.00,,,0.09,0.0,meteohub,2013-11-01 23:17:00,
2013-11-01 19:22:00,61.9,57.6,29.62,SSE,157,8.0,16.0,86,0.00,,,0.09,0.0,meteohub,2013-11-01 23:22:00,
2013-11-01 19:27:00,61.9,57.6,29.62,South,182,9.0,16.0,86,0.00,,,0.09,0.0,meteohub,2013-11-01 23:27:00,
2013-11-01 19:32:00,61.9,57.6,29.62,SSW,202,6.0,16.0,86,0.00,,,0.09,0.0,meteohub,2013-11-01 23:32:00,
2013-11-01 19:37:00,61.7,57.7,29.62,SSW,211,6.0,15.0,87,0.00,,,0.09,0.0,meteohub,2013-11-01 23:37:00,
2013-11-01 19:42:00,61.5,57.6,29.62,SW,232,7.0,15.0,87,0.00,,,0.09,0.0,meteohub,2013-11-01 23:42:00,
2013-11-01 19:47:00,61.7,57.7,29.62,SW,215,3.0,13.0,87,0.00,,,0.09,0.0,meteohub,2013-11-01 23:47:00,
2013-11-01 19:52:00,61.5,57.6,29.62,South,178,5.0,14.0,87,0.00,,,0.09,0.0,meteohub,2013-11-01 23:52:00,
2013-11-01 19:57:00,61.5,57.6,29.62,SSW,201,5.0,14.0,87,0.00,,,0.09,0.0,meteohub,2013-11-01 23:57:00,
2013-11-01 20:02:00,61.5,57.6,29.62,South,188,1.0,14.0,87,0.00,,,0.09,0.0,meteohub,2013-11-02 00:02:00,
2013-11-01 20:07:00,61.3,57.4,29.62,SW,220,8.0,11.0,87,0.00,,,0.00,0.0,meteohub,2013-11-02 00:07:00,
2013-11-01 20:12:00,61.3,57.4,29.62,SSW,198,4.0,12.0,87,0.00,,,0.00,0.0,meteohub,2013-11-02 00:12:00,
2013-11-01 20:17:00,61.5,57.6,29.63,SSW,194,3.0,12.0,87,0.00,,,0.00,0.0,meteohub,2013-11-02 00:17:00,
2013-11-01 20:22:00,61.5,57.6,29.63,South,173,4.0,12.0,87,0.00,,,0.00,0.0,meteohub,2013-11-02 00:22:00,
2013-11-01 20:27:00,61.3,57.4,29.63,SSW,198,4.0,9.0,87,0.00,,,0.00,0.0,meteohub,2013-11-02 00:27:00,
2013-11-01 20:32:00,61.3,57.4,29.63,South,187,2.0,9.0,87,0.00,,,0.00,0.0,meteohub,2013-11-02 00:32:00,
2013-11-01 20:37:00,61.3,57.4,29.63,SW,227,6.0,7.0,87,0.00,,,0.00,0.0,meteohub,2013-11-02 00:37:00,
2013-11-01 20:42:00,61.2,57.2,29.63,SW,214,2.0,8.0,87,0.00,,,0.00,0.0,meteohub,2013-11-02 00:42:00,
2013-11-01 20:47:00,61.3,57.4,29.63,SSW,200,8.0,8.0,87,0.00,,,0.00,0.0,meteohub,2013-11-02 00:47:00,
2013-11-01 20:52:00,61.3,57.4,29.63,SW,235,4.0,11.0,87,0.00,,,0.00,0.0,meteohub,2013-11-02 00:52:00,
2013-11-01 20:57:00,61.3,57.4,29.63,SSW,206,3.0,11.0,87,0.00,,,0.00,0.0,meteohub,2013-11-02 00:57:00,
2013-11-01 21:02:00,61.5,57.4,29.64,SW,230,4.0,12.0,86,0.00,,,0.00,0.0,meteohub,2013-11-02 01:02:00,
2013-11-01 21:07:00,61.5,57.4,29.64,WSW,242,4.0,12.0,86,0.00,,,0.00,0.0,meteohub,2013-11-02 01:07:00,
2013-11-01 21:12:00,61.5,57.4,29.63,South,189,0.0,12.0,86,0.00,,,0.00,0.0,meteohub,2013-11-02 01:12:00,
2013-11-01 21:17:00,61.5,57.4,29.63,SW,225,0.0,11.0,86,0.00,,,0.00,0.0,meteohub,2013-11-02 01:17:00,
2013-11-01 21:22:00,61.3,57.2,29.64,SW,216,7.0,12.0,86,0.00,,,0.00,0.0,meteohub,2013-11-02 01:22:00,
2013-11-01 21:27:00,61.3,57.4,29.64,South,175,0.0,12.0,87,0.00,,,0.00,0.0,meteohub,2013-11-02 01:27:00,
2013-11-01 21:32:00,61.3,57.4,29.64,SW,221,4.0,12.0,87,0.00,,,0.00,0.0,meteohub,2013-11-02 01:32:00,
2013-11-01 21:37:00,61.2,57.2,29.64,SW,219,3.0,10.0,87,0.00,,,0.00,0.0,meteohub,2013-11-02 01:37:00,
2013-11-01 21:42:00,61.2,57.2,29.65,SSW,206,4.0,10.0,87,0.00,,,0.00,0.0,meteohub,2013-11-02 01:42:00,
2013-11-01 21:47:00,61.0,57.0,29.65,South,177,4.0,10.0,87,0.00,,,0.00,0.0,meteohub,2013-11-02 01:47:00,
2013-11-01 21:52:00,61.0,57.4,29.65,SSW,198,0.0,8.0,88,0.00,,,0.00,0.0,meteohub,2013-11-02 01:52:00,
2013-11-01 21:57:00,60.6,57.0,29.65,SSW,209,1.0,7.0,88,0.00,,,0.00,0.0,meteohub,2013-11-02 01:57:00,
2013-11-01 22:02:00,60.6,57.0,29.66,SW,221,3.0,6.0,88,0.00,,,0.00,0.0,meteohub,2013-11-02 02:02:00,
2013-11-01 22:07:00,60.6,57.0,29.66,SSW,209,1.0,6.0,88,0.00,,,0.00,0.0,meteohub,2013-11-02 02:07:00,
2013-11-01 22:12:00,60.6,57.0,29.66,West,278,4.0,6.0,88,0.00,,,0.00,0.0,meteohub,2013-11-02 02:12:00,
2013-11-01 22:17:00,60.4,57.2,29.66,West,268,0.0,8.0,89,0.00,,,0.00,0.0,meteohub,2013-11-02 02:17:00,
2013-11-01 22:22:00,60.4,56.8,29.65,West,269,0.0,8.0,88,0.00,,,0.00,0.0,meteohub,2013-11-02 02:22:00,
2013-11-01 22:27:00,60.3,57.0,29.66,West,272,0.0,6.0,89,0.00,,,0.00,0.0,meteohub,2013-11-02 02:27:00,
2013-11-01 22:32:00,60.1,56.8,29.66,West,272,0.0,5.0,89,0.00,,,0.00,0.0,meteohub,2013-11-02 02:32:00,
2013-11-01 22:37:00,59.9,56.3,29.66,West,271,0.0,5.0,88,0.00,,,0.00,0.0,meteohub,2013-11-02 02:37:00,
2013-11-01 22:42:00,59.7,56.5,29.67,West,271,2.0,5.0,89,0.00,,,0.00,0.0,meteohub,2013-11-02 02:42:00,
2013-11-01 22:47:00,59.5,56.3,29.67,West,271,0.0,4.0,89,0.00,,,0.00,0.0,meteohub,2013-11-02 02:47:00,
2013-11-01 22:52:00,59.5,56.3,29.67,West,271,0.0,4.0,89,0.00,,,0.00,0.0,meteohub,2013-11-02 02:52:00,
2013-11-01 22:57:00,59.5,56.7,29.67,SW,224,2.0,5.0,90,0.00,,,0.00,0.0,meteohub,2013-11-02 02:57:00,
2013-11-01 23:02:00,59.5,56.7,29.67,SW,223,2.0,8.0,90,0.00,,,0.00,0.0,meteohub,2013-11-02 03:02:00,
2013-11-01 23:07:00,59.7,56.8,29.68,West,281,0.0,8.0,90,0.00,,,0.00,0.0,meteohub,2013-11-02 03:07:00,
2013-11-01 23:12:00,59.7,56.8,29.68,SW,228,4.0,8.0,90,0.00,,,0.00,0.0,meteohub,2013-11-02 03:12:00,
2013-11-01 23:17:00,59.9,57.2,29.68,SW,229,0.0,7.0,91,0.00,,,0.00,0.0,meteohub,2013-11-02 03:17:00,
2013-11-01 23:22:00,59.9,57.2,29.68,SSW,207,2.0,10.0,91,0.00,,,0.00,0.0,meteohub,2013-11-02 03:22:00,
2013-11-01 23:27:00,60.1,57.4,29.68,WSW,238,1.0,10.0,91,0.00,,,0.00,0.0,meteohub,2013-11-02 03:27:00,
2013-11-01 23:32:00,60.1,57.2,29.68,West,259,4.0,8.0,90,0.00,,,0.00,0.0,meteohub,2013-11-02 03:32:00,
2013-11-01 23:37:00,60.1,57.2,29.67,NW,319,1.0,8.0,90,0.00,,,0.00,0.0,meteohub,2013-11-02 03:37:00,
2013-11-01 23:42:00,60.1,57.2,29.67,WSW,243,2.0,8.0,90,0.00,,,0.00,0.0,meteohub,2013-11-02 03:42:00,
2013-11-01 23:47:00,60.1,57.2,29.66,NW,321,2.0,9.0,90,0.00,,,0.00,0.0,meteohub,2013-11-02 03:47:00,
2013-11-01 23:52:00,60.1,57.2,29.66,NW,304,6.0,9.0,90,0.00,,,0.00,0.0,meteohub,2013-11-02 03:52:00,
2013-11-01 23:57:00,60.1,57.2,29.66,West,278,2.0,9.0,90,0.00,,,0.00,0.0,meteohub,2013-11-02 03:57:00,